Time;durP1;ratioP1;P1;durP2;ratioP2;P2;SDS_P1;SDS_P2;PMS_P1;PMS_P2;Temp;Humidity;BMP_temperature;BMP_pressure;BME280_temperature;BME280_humidity;BME280_pressure;Samples;Min_cycle;Max_cycle;Signal;HPM_P1;HPM_P2
2021/03/08 00:00:23;;;;;;;11.43;6.00;;;;;;;-5.31;66.38;95793.34;1819021;79;21804;-71
2021/03/08 00:02:55;;;;;;;13.03;7.23;;;;;;;-5.23;65.79;95789.00;1819025;79;21808;-70
2021/03/08 00:05:24;;;;;;;13.90;8.27;;;;;;;-5.18;66.92;95787.05;1819223;79;22239;-70
2021/03/08 00:07:53;;;;;;;9.33;5.97;;;;;;;-5.18;66.54;95786.63;1819346;79;21820;-70
2021/03/08 00:10:21;;;;;;;10.43;6.07;;;;;;;-5.06;65.92;95780.74;1819346;79;22232;-71
2021/03/08 00:12:53;;;;;;;10.20;6.00;;;;;;;-5.23;66.44;95782.98;1819184;79;21789;-71
2021/03/08 00:15:23;;;;;;;9.00;5.43;;;;;;;-5.18;66.20;95779.33;1816471;79;22250;-71
2021/03/08 00:17:53;;;;;;;9.27;5.43;;;;;;;-5.22;65.60;95778.30;1819398;79;21809;-71
2021/03/08 00:20:25;;;;;;;10.97;5.63;;;;;;;-5.17;65.49;95768.21;1819131;79;21827;-71
2021/03/08 00:22:54;;;;;;;9.27;5.63;;;;;;;-5.20;65.53;95771.94;1819090;79;22262;-71
2021/03/08 00:25:30;;;;;;;12.37;6.50;;;;;;;-5.22;65.30;95775.34;1819199;79;22277;-71
2021/03/08 00:27:59;;;;;;;12.63;6.77;;;;;;;-5.22;65.66;95771.86;1819108;79;22265;-70
2021/03/08 00:30:37;;;;;;;8.20;5.03;;;;;;;-5.22;65.66;95771.86;1781033;79;22274;-70
2021/03/08 00:33:05;;;;;;;11.53;6.13;;;;;;;-5.20;65.15;95757.80;1819428;79;21814;-71
2021/03/08 00:35:38;;;;;;;13.45;6.00;;;;;;;-5.20;65.15;95757.80;1819598;79;21812;-70
2021/03/08 00:38:07;;;;;;;9.80;5.50;;;;;;;-5.10;65.02;95756.09;1819237;79;21995;-71
2021/03/08 00:40:51;;;;;;;5.27;3.27;;;;;;;-5.10;64.66;95747.09;1819445;79;21795;-71
2021/03/08 00:43:19;;;;;;;9.00;5.30;;;;;;;-5.40;66.33;95748.78;1819347;79;21818;-70
2021/03/08 00:45:51;;;;;;;8.87;5.33;;;;;;;-5.67;66.67;95750.98;1816489;79;21842;-71
2021/03/08 00:48:23;;;;;;;11.73;5.43;;;;;;;-5.67;66.67;95750.98;1787636;79;21815;-70
2021/03/08 00:50:52;;;;;;;10.07;5.73;;;;;;;-5.72;66.77;95746.95;1819008;79;21820;-70
2021/03/08 00:53:29;;;;;;;9.50;5.50;;;;;;;-5.62;66.35;95744.36;1812980;79;21803;-71
2021/03/08 00:55:58;;;;;;;8.17;4.93;;;;;;;-5.44;65.98;95731.07;1819397;79;21819;-70
2021/03/08 00:58:26;;;;;;;8.57;5.50;;;;;;;-5.44;65.98;95731.07;1818999;79;21822;-70
2021/03/08 01:00:54;;;;;;;9.53;5.30;;;;;;;-5.38;65.57;95735.59;1818998;79;21803;-70
2021/03/08 01:03:24;;;;;;;11.40;5.63;;;;;;;-5.32;65.27;95722.99;1720280;83;21811;-70
2021/03/08 01:06:11;;;;;;;11.90;7.37;;;;;;;-5.26;65.87;95729.71;1765394;79;28070;-71
2021/03/08 01:08:40;;;;;;;10.47;5.80;;;;;;;-5.46;65.55;95733.97;1754177;82;21149;-71
2021/03/08 01:11:09;;;;;;;9.77;5.27;;;;;;;-5.48;65.36;95735.59;1725118;82;21825;-68
2021/03/08 01:13:39;;;;;;;8.57;5.00;;;;;;;-5.42;65.29;95739.24;1752299;82;21785;-71
2021/03/08 01:16:10;;;;;;;9.33;5.27;;;;;;;-5.53;65.93;95721.66;1753851;82;21801;-70
2021/03/08 01:18:38;;;;;;;7.80;4.53;;;;;;;-5.49;65.39;95725.25;1753908;82;21786;-71
2021/03/08 01:21:06;;;;;;;7.60;4.70;;;;;;;-5.53;65.02;95724.22;1753945;81;21813;-71
2021/03/08 01:23:34;;;;;;;8.67;4.53;;;;;;;-5.58;65.53;95712.85;1754255;82;21820;-71
2021/03/08 01:26:02;;;;;;;11.93;5.00;;;;;;;-5.58;65.53;95712.85;1754132;81;21832;-71
2021/03/08 01:28:35;;;;;;;7.78;4.37;;;;;;;-5.54;65.64;95711.31;1754111;82;21623;-71
2021/03/08 01:31:03;;;;;;;7.07;3.87;;;;;;;-5.58;66.32;95705.14;1753688;82;21118;-71
2021/03/08 01:33:51;;;;;;;7.37;4.13;;;;;;;-5.58;66.32;95705.14;1740565;82;21644;-71
2021/03/08 01:36:21;;;;;;;8.80;4.40;;;;;;;-5.75;65.75;95703.09;1752257;82;22161;-71
2021/03/08 01:38:50;;;;;;;8.47;4.30;;;;;;;-5.75;65.75;95703.09;1754066;82;21687;-71
2021/03/08 01:41:18;;;;;;;5.97;3.20;;;;;;;-5.68;65.51;95696.14;1753917;81;21646;-71
2021/03/08 01:43:46;;;;;;;8.33;4.70;;;;;;;-5.89;67.35;95685.78;1754184;82;21590;-70
2021/03/08 01:46:16;;;;;;;10.00;5.10;;;;;;;-5.89;67.35;95685.78;1752771;82;21592;-70
2021/03/08 01:48:52;;;;;;;6.90;4.20;;;;;;;-6.01;67.32;95683.09;1754344;82;21631;-71
2021/03/08 01:51:36;;;;;;;9.93;4.10;;;;;;;-5.99;66.76;95673.37;1754019;82;21797;-71
2021/03/08 01:54:06;;;;;;;7.77;4.30;;;;;;;-5.85;66.92;95679.08;1752670;82;21591;-71
2021/03/08 01:56:35;;;;;;;10.37;4.07;;;;;;;-5.85;66.92;95679.08;1753936;82;21661;-70
2021/03/08 01:59:04;;;;;;;6.03;3.30;;;;;;;-6.00;66.41;95670.30;1754251;82;21833;-71
2021/03/08 02:01:32;;;;;;;6.43;3.70;;;;;;;-6.12;67.31;95670.64;1753804;82;21660;-71
2021/03/08 02:04:01;;;;;;;7.90;4.23;;;;;;;-6.12;67.31;95670.64;1754196;82;21816;-71
2021/03/08 02:06:30;;;;;;;7.83;3.37;;;;;;;-6.22;68.59;95667.19;1753783;81;21596;-70
2021/03/08 02:09:04;;;;;;;6.43;3.23;;;;;;;-6.22;68.59;95667.19;1748159;82;22059;-71
2021/03/08 02:11:35;;;;;;;7.03;4.10;;;;;;;-6.27;68.00;95654.91;1753952;81;21540;-70
2021/03/08 02:14:28;;;;;;;6.13;3.90;;;;;;;-6.07;68.25;95663.53;1753932;82;21532;-70
2021/03/08 02:17:21;;;;;;;8.93;5.40;;;;;;;-6.01;67.78;95662.14;1753154;81;21586;-71
2021/03/08 02:20:18;;;;;;;8.00;4.10;;;;;;;-6.01;67.78;95662.14;1740842;82;21591;-70
2021/03/08 02:23:25;;;;;;;5.37;3.53;;;;;;;-6.10;67.02;95661.33;1753605;82;21569;-71
2021/03/08 02:26:35;;;;;;;7.43;3.83;;;;;;;-6.03;67.44;95659.02;1741075;82;22002;-70
2021/03/08 02:29:40;;;;;;;7.73;4.30;;;;;;;-6.03;67.44;95659.02;1753608;82;21514;-71
2021/03/08 02:32:14;;;;;;;5.83;3.63;;;;;;;-5.96;66.96;95654.23;1747578;82;21572;-71
2021/03/08 02:34:51;;;;;;;6.13;4.17;;;;;;;-5.88;66.25;95646.42;1753382;82;21673;-70
2021/03/08 02:37:23;;;;;;;9.43;5.00;;;;;;;-5.88;66.25;95646.42;1752976;82;21646;-71
2021/03/08 02:40:13;;;;;;;6.83;4.50;;;;;;;-5.79;66.33;95647.25;1753499;82;21137;-70
2021/03/08 02:42:43;;;;;;;8.23;3.80;;;;;;;-5.81;66.17;95633.86;1753536;81;22143;-71
2021/03/08 02:45:16;;;;;;;6.27;3.60;;;;;;;-5.80;65.77;95637.77;1753367;82;22008;-71
2021/03/08 02:47:48;;;;;;;8.83;4.07;;;;;;;-5.82;66.00;95645.84;1753463;82;21590;-71
2021/03/08 02:50:19;;;;;;;9.80;4.80;;;;;;;-5.82;66.00;95645.84;1753330;81;21667;-71
2021/03/08 02:53:00;;;;;;;7.80;3.50;;;;;;;-5.98;67.12;95663.97;1753373;82;21732;-70
2021/03/08 02:55:42;;;;;;;7.03;4.03;;;;;;;-6.32;66.55;95665.00;1753489;81;21540;-70
2021/03/08 02:58:12;;;;;;;6.67;3.43;;;;;;;-6.23;66.97;95672.23;1753260;82;21676;-71
2021/03/08 03:00:42;;;;;;;6.87;4.07;;;;;;;-6.23;66.97;95672.23;1749137;82;21555;-70
2021/03/08 03:03:33;;;;;;;7.63;4.07;;;;;;;-6.33;67.20;95667.07;1752216;82;21531;-70
2021/03/08 03:06:02;;;;;;;6.87;3.70;;;;;;;-6.24;67.15;95666.22;1744098;82;22030;-71
2021/03/08 03:08:32;;;;;;;7.57;3.73;;;;;;;-6.18;66.63;95668.19;1740334;82;22095;-70
2021/03/08 03:11:23;;;;;;;6.43;3.10;;;;;;;-6.20;66.61;95663.38;1740163;82;21695;-71
2021/03/08 03:14:01;;;;;;;5.27;3.33;;;;;;;-6.20;66.61;95663.38;1740250;82;21632;-70
2021/03/08 03:16:30;;;;;;;10.83;3.90;;;;;;;-6.39;67.17;95668.95;1740210;82;22071;-70
2021/03/08 03:19:01;;;;;;;5.87;3.80;;;;;;;-6.37;67.35;95663.91;1739994;82;21572;-70
2021/03/08 03:21:35;;;;;;;7.90;3.80;;;;;;;-6.41;67.09;95659.42;1740259;82;21481;-70
2021/03/08 03:24:06;;;;;;;7.47;3.90;;;;;;;-6.26;67.54;95656.69;1740106;82;21276;-70
2021/03/08 03:26:40;;;;;;;6.23;3.63;;;;;;;-6.19;67.10;95640.77;1737868;82;21710;-70
2021/03/08 03:29:10;;;;;;;5.80;3.40;;;;;;;-6.05;66.77;95647.80;1740372;82;21529;-70
2021/03/08 03:31:41;;;;;;;5.87;3.73;;;;;;;-5.89;66.17;95640.82;1739886;82;21707;-70
2021/03/08 03:34:10;;;;;;;6.23;3.83;;;;;;;-5.85;66.08;95641.83;1740306;82;22139;-70
2021/03/08 03:36:41;;;;;;;10.50;4.70;;;;;;;-5.85;66.08;95641.83;1740285;82;21692;-71
2021/03/08 03:39:11;;;;;;;5.70;3.57;;;;;;;-5.88;65.61;95637.42;1740258;82;21525;-70
2021/03/08 03:41:58;;;;;;;5.80;3.50;;;;;;;-6.03;66.24;95638.47;1740257;82;21665;-70
2021/03/08 03:44:30;;;;;;;7.97;3.43;;;;;;;-6.02;66.09;95638.56;1740098;82;22046;-71
2021/03/08 03:46:59;;;;;;;6.73;3.87;;;;;;;-6.14;66.05;95641.44;1740028;82;21658;-70
2021/03/08 03:49:28;;;;;;;6.43;3.53;;;;;;;-6.25;67.81;95640.47;1740113;82;21565;-71
2021/03/08 03:51:56;;;;;;;8.23;3.80;;;;;;;-6.37;68.54;95643.37;1740180;82;22147;-70
2021/03/08 03:54:24;;;;;;;6.47;3.87;;;;;;;-6.36;67.40;95638.28;1740259;82;21568;-71
2021/03/08 03:57:08;;;;;;;7.67;3.43;;;;;;;-6.19;67.33;95639.06;1740267;82;22179;-70
2021/03/08 03:59:48;;;;;;;8.40;4.43;;;;;;;-6.07;67.11;95634.00;1727936;82;21717;-70
2021/03/08 04:02:21;;;;;;;4.90;3.17;;;;;;;-6.07;67.11;95634.00;1740078;81;21741;-70
2021/03/08 04:04:58;;;;;;;23.40;8.60;;;;;;;-6.03;66.70;95641.91;1740252;81;21816;-70
2021/03/08 04:07:26;;;;;;;5.70;3.53;;;;;;;-6.22;67.59;95629.95;1740103;82;21560;-70
2021/03/08 04:10:15;;;;;;;7.73;4.27;;;;;;;-6.37;67.25;95640.80;1740397;81;21663;-70
2021/03/08 04:12:48;;;;;;;8.13;3.63;;;;;;;-6.49;68.88;95643.66;1740273;82;22108;-70
2021/03/08 04:15:23;;;;;;;5.70;3.77;;;;;;;-6.49;68.88;95643.66;1737462;82;21660;-71
2021/03/08 04:17:58;;;;;;;6.47;3.30;;;;;;;-6.40;69.82;95644.11;1739964;82;22065;-70
2021/03/08 04:20:29;;;;;;;6.80;3.67;;;;;;;-6.40;68.64;95641.91;1740269;82;22133;-70
2021/03/08 04:23:07;;;;;;;5.33;3.70;;;;;;;-6.40;68.64;95641.91;1740138;82;22097;-70
2021/03/08 04:25:38;;;;;;;5.30;3.63;;;;;;;-6.36;68.54;95642.55;1740665;82;21594;-70
2021/03/08 04:28:13;;;;;;;5.27;3.40;;;;;;;-6.36;68.54;95642.55;1740187;82;22434;-70
2021/03/08 04:30:44;;;;;;;6.83;3.80;;;;;;;-6.20;68.49;95638.61;1740390;82;22032;-70
2021/03/08 04:33:16;;;;;;;6.60;3.72;;;;;;;-6.00;68.05;95642.45;1715735;82;22189;-71
2021/03/08 04:35:54;;;;;;;17.40;6.80;;;;;;;-6.14;68.41;95640.56;1740128;82;21145;-70
2021/03/08 04:38:24;;;;;;;9.97;4.27;;;;;;;-6.36;67.59;95639.98;1740327;82;21708;-70
2021/03/08 04:40:52;;;;;;;6.93;3.50;;;;;;;-6.38;67.87;95643.75;1740339;82;21833;-70
2021/03/08 04:43:24;;;;;;;5.83;3.50;;;;;;;-6.08;67.68;95645.09;1739927;82;21593;-70
2021/03/08 04:46:11;;;;;;;6.03;3.70;;;;;;;-6.08;67.68;95645.09;1738209;82;21591;-70
2021/03/08 04:48:44;;;;;;;5.60;3.55;;;;;;;-6.00;67.59;95634.34;1740290;82;21733;-71
2021/03/08 04:51:12;;;;;;;6.53;3.47;;;;;;;-5.96;67.07;95640.52;1740150;82;21142;-71
2021/03/08 04:53:42;;;;;;;7.27;4.13;;;;;;;-5.90;66.96;95644.59;1740245;82;21679;-70
2021/03/08 04:56:15;;;;;;;6.13;3.80;;;;;;;-5.90;66.96;95644.59;1737986;82;21689;-70
2021/03/08 04:58:47;;;;;;;7.10;3.80;;;;;;;-6.00;66.89;95642.45;1632023;88;21556;-70
2021/03/08 05:01:33;;;;;;;15.00;7.27;;;;;;;-6.03;67.88;95629.48;1780637;79;22852;-70
2021/03/08 05:04:07;;;;;;;26.07;10.77;;;;;;;-6.33;69.28;95626.86;1753860;82;21550;-70
2021/03/08 05:06:41;;;;;;;7.87;4.90;;;;;;;-6.33;69.28;95626.86;1754489;81;21549;-70
2021/03/08 05:09:12;;;;;;;7.50;3.77;;;;;;;-5.93;67.81;95629.05;1754025;82;21122;-70
2021/03/08 05:11:53;;;;;;;8.70;4.07;;;;;;;-5.93;67.81;95629.05;1753745;82;21966;-71
2021/03/08 05:14:23;;;;;;;13.72;5.72;;;;;;;-5.77;67.57;95631.88;1754222;81;21533;-70
2021/03/08 05:16:54;;;;;;;43.63;18.53;;;;;;;-5.83;68.04;95638.05;1754200;81;21094;-70
2021/03/08 05:19:23;;;;;;;10.47;4.53;;;;;;;-5.99;68.26;95641.67;1754110;81;21542;-70
2021/03/08 05:21:54;;;;;;;6.00;3.90;;;;;;;-5.99;68.26;95641.67;1754248;81;21583;-70
2021/03/08 05:24:44;;;;;;;23.97;10.63;;;;;;;-6.01;69.78;95639.43;1749914;82;22069;-71
2021/03/08 05:27:14;;;;;;;28.03;11.93;;;;;;;-6.11;70.07;95642.86;1753968;81;22006;-71
2021/03/08 05:29:48;;;;;;;64.70;22.10;;;;;;;-6.11;70.07;95642.86;1753015;82;21631;-70
2021/03/08 05:32:29;;;;;;;22.73;9.23;;;;;;;-6.20;69.55;95642.84;1747880;82;21795;-70
2021/03/08 05:35:00;;;;;;;21.62;7.87;;;;;;;-6.20;69.55;95642.84;1753112;82;21560;-70
2021/03/08 05:37:28;;;;;;;17.80;8.13;;;;;;;-6.20;70.76;95646.31;1754328;82;21137;-70
2021/03/08 05:39:59;;;;;;;27.37;10.17;;;;;;;-6.07;71.42;95639.13;1754080;81;21674;-71
2021/03/08 05:42:36;;;;;;;9.60;5.27;;;;;;;-6.07;71.42;95639.13;1740312;82;21583;-70
2021/03/08 05:45:10;;;;;;;8.87;4.30;;;;;;;-5.75;69.47;95632.83;1751192;82;22057;-70
2021/03/08 05:48:29;;;;;;;7.47;4.07;;;;;;;-5.75;69.47;95632.83;1753890;81;21605;-70
2021/03/08 05:51:21;;;;;;;5.30;3.27;;;;;;;-5.45;69.21;95629.02;1754130;82;21629;-71
2021/03/08 05:54:07;;;;;;;23.57;10.17;;;;;;;-5.38;69.44;95646.01;1753777;82;21125;-71
2021/03/08 05:57:02;;;;;;;37.00;16.17;;;;;;;-5.38;69.44;95646.01;1753952;82;21581;-69
2021/03/08 05:59:45;;;;;;;;;;;;;;;-5.42;70.11;95644.11;1754627;81;21836;-67
2021/03/08 06:02:34;;;;;;;14.93;8.88;;;;;;;-5.38;69.15;95641.73;1721693;82;20404;-79
2021/03/08 06:05:45;;;;;;;32.73;15.07;;;;;;;-5.31;69.55;95641.60;1713737;82;21158;-69
2021/03/08 06:08:49;;;;;;;37.70;16.33;;;;;;;-5.13;69.71;95640.20;1740751;82;21796;-69
2021/03/08 06:11:19;;;;;;;55.33;22.82;;;;;;;-4.96;68.83;95631.88;1724839;82;21825;-72
2021/03/08 06:13:57;;;;;;;57.53;24.57;;;;;;;-4.85;68.30;95637.95;1740200;82;21280;-67
2021/03/08 06:16:35;;;;;;;64.17;25.77;;;;;;;-4.93;68.76;95632.03;1719696;82;21803;-68
2021/03/08 06:19:06;;;;;;;56.77;25.57;;;;;;;-4.97;68.88;95635.28;1740361;81;21952;-74
2021/03/08 06:21:36;;;;;;;43.17;18.93;;;;;;;-4.80;69.07;95636.84;1740362;82;22402;-77
2021/03/08 06:24:07;;;;;;;47.30;23.00;;;;;;;-4.53;68.33;95638.78;1740771;82;21812;-68
2021/03/08 06:26:55;;;;;;;62.63;30.07;;;;;;;-4.39;67.99;95632.45;1730901;82;21797;-74
2021/03/08 06:29:25;;;;;;;72.00;31.63;;;;;;;-4.17;67.19;95639.32;1740374;82;21967;-70
2021/03/08 06:31:54;;;;;;;81.57;36.63;;;;;;;-4.09;66.44;95638.32;1740541;82;21832;-71
2021/03/08 06:34:23;;;;;;;73.83;34.33;;;;;;;-3.98;66.01;95638.30;1736532;82;21965;-82
2021/03/08 06:37:00;;;;;;;43.57;21.43;;;;;;;-3.97;66.69;95634.50;1658547;86;21920;-68
2021/03/08 06:39:36;;;;;;;49.13;24.70;;;;;;;-3.79;66.35;95636.01;1718194;82;21809;-72
2021/03/08 06:42:11;;;;;;;40.90;20.80;;;;;;;-3.74;64.65;95634.06;1738896;82;21870;-75
2021/03/08 06:44:40;;;;;;;40.23;21.07;;;;;;;-3.77;64.36;95625.34;1740410;82;21825;-71
2021/03/08 06:47:11;;;;;;;37.70;22.47;;;;;;;-3.69;63.35;95627.78;1658433;86;21894;-72
2021/03/08 06:49:39;;;;;;;38.47;17.70;;;;;;;-3.65;63.32;95625.80;1658570;86;21909;-71
2021/03/08 06:52:21;;;;;;;32.60;15.37;;;;;;;-3.54;63.26;95624.46;1658671;86;22369;-82
2021/03/08 06:55:04;;;;;;;22.07;12.28;;;;;;;-3.44;62.45;95624.38;1659133;86;21845;-70
2021/03/08 06:57:37;;;;;;;25.83;12.63;;;;;;;-3.32;62.83;95622.66;1658969;86;21170;-72
2021/03/08 07:00:11;;;;;;;19.03;11.13;;;;;;;-3.27;61.75;95621.11;1658857;86;21889;-69
2021/03/08 07:03:01;;;;;;;16.90;10.33;;;;;;;-3.12;61.59;95621.63;1658664;86;21201;-71
2021/03/08 07:05:32;;;;;;;8.47;4.37;;;;;;;-2.88;61.26;95619.39;1705925;82;21154;-67
2021/03/08 07:08:01;;;;;;;21.87;14.80;;;;;;;-2.69;61.09;95611.85;1740293;82;21283;-71
2021/03/08 07:10:43;;;;;;;13.37;9.23;;;;;;;-2.43;60.89;95613.53;1740322;82;21545;-75
2021/03/08 07:13:12;;;;;;;18.70;10.50;;;;;;;-2.23;59.38;95610.70;1740156;82;21264;-70
2021/03/08 07:15:56;;;;;;;19.50;9.27;;;;;;;-2.10;58.39;95617.98;1688295;82;21604;-70
2021/03/08 07:18:26;;;;;;;22.50;12.57;;;;;;;-1.91;59.61;95603.05;1740071;82;21138;-74
2021/03/08 07:21:14;;;;;;;22.20;13.03;;;;;;;-1.61;59.38;95606.92;1740138;82;21162;-74
2021/03/08 07:23:51;;;;;;;19.12;10.75;;;;;;;-1.39;58.35;95594.14;1740116;81;21766;-76
2021/03/08 07:26:25;;;;;;;29.57;14.83;;;;;;;-1.24;58.73;95597.13;1740300;82;21280;-70
2021/03/08 07:29:16;;;;;;;65.93;28.83;;;;;;;-1.04;56.23;95591.18;1728718;82;21141;-71
2021/03/08 07:31:53;;;;;;;94.23;39.73;;;;;;;-0.83;55.83;95592.56;1697838;81;21162;-78
2021/03/08 07:34:22;;;;;;;22.53;10.20;;;;;;;-0.57;56.59;95586.73;1761209;81;21099;-75
2021/03/08 07:37:00;;;;;;;75.37;34.47;;;;;;;-0.34;56.30;95587.27;1776082;81;21281;-69
2021/03/08 07:39:32;;;;;;;18.10;8.63;;;;;;;-0.08;56.70;95580.07;1698790;84;21477;-71
2021/03/08 07:42:09;;;;;;;12.37;7.63;;;;;;;0.17;53.99;95574.98;1775596;81;21182;-69
2021/03/08 07:44:51;;;;;;;10.90;6.77;;;;;;;0.42;50.59;95573.34;1775917;81;21283;-70
2021/03/08 07:47:21;;;;;;;13.72;9.08;;;;;;;0.71;48.20;95574.78;1758558;81;21146;-80
2021/03/08 07:50:26;;;;;;;10.30;7.37;;;;;;;1.01;47.11;95572.73;1763538;81;21287;-73
2021/03/08 07:52:56;;;;;;;12.10;6.90;;;;;;;1.24;45.71;95567.06;1775994;81;21576;-69
2021/03/08 07:55:36;;;;;;;5.67;4.70;;;;;;;1.45;44.60;95567.83;1650619;84;21153;-69
2021/03/08 07:58:17;;;;;;;12.13;6.97;;;;;;;1.57;42.44;95557.63;1775770;80;21134;-70
2021/03/08 08:00:45;;;;;;;4.67;3.07;;;;;;;1.76;42.47;95549.66;1776481;80;21264;-70
2021/03/08 08:03:22;;;;;;;12.63;7.80;;;;;;;1.81;40.90;95559.70;1700287;84;21611;-69
2021/03/08 08:06:03;;;;;;;13.27;9.20;;;;;;;1.94;42.96;95553.84;1747533;81;21511;-69
2021/03/08 08:08:56;;;;;;;12.50;7.73;;;;;;;2.17;42.05;95548.07;1693020;84;21149;-68
2021/03/08 08:11:28;;;;;;;8.40;5.30;;;;;;;2.36;43.06;95546.12;1776613;81;21129;-72
2021/03/08 08:14:00;;;;;;;6.73;4.37;;;;;;;2.51;41.87;95553.24;1776042;81;21303;-68
2021/03/08 08:16:35;;;;;;;7.35;4.85;;;;;;;2.47;40.36;95550.58;1766987;80;21130;-66
2021/03/08 08:19:07;;;;;;;13.73;8.57;;;;;;;2.47;40.81;95550.18;1776255;81;21264;-69
2021/03/08 08:21:42;;;;;;;8.53;6.00;;;;;;;2.52;42.37;95552.41;1699888;84;21174;-69
2021/03/08 08:24:23;;;;;;;8.65;4.17;;;;;;;2.51;40.50;95553.24;1776359;81;21288;-75
2021/03/08 08:26:54;;;;;;;8.77;4.93;;;;;;;2.46;38.96;95551.45;1776049;81;21292;-73
2021/03/08 08:29:46;;;;;;;6.40;4.40;;;;;;;2.60;40.22;95552.49;1700381;84;21154;-72
2021/03/08 08:32:57;;;;;;;10.87;7.23;;;;;;;2.76;40.28;95545.71;1737556;81;21282;-67
2021/03/08 08:35:31;;;;;;;10.23;6.40;;;;;;;2.93;40.11;95537.64;1700361;84;21150;-68
2021/03/08 08:38:21;;;;;;;9.10;4.73;;;;;;;2.89;37.14;95537.16;1780711;79;22904;-67
2021/03/08 08:40:48;;;;;;;9.10;5.77;;;;;;;2.90;38.68;95536.72;1753423;82;21153;-68
2021/03/08 08:43:20;;;;;;;7.73;4.73;;;;;;;2.95;36.89;95525.50;1724808;82;21162;-70
2021/03/08 08:45:51;;;;;;;9.50;6.40;;;;;;;3.13;39.06;95530.45;1753990;82;21129;-70
2021/03/08 08:48:26;;;;;;;12.17;7.67;;;;;;;3.27;38.41;95525.34;1753666;82;21114;-80
2021/03/08 08:50:58;;;;;;;12.57;7.27;;;;;;;3.45;37.80;95517.25;1754072;82;21165;-69
2021/03/08 08:53:41;;;;;;;9.30;6.37;;;;;;;3.56;36.87;95523.84;1753990;82;21094;-74
2021/03/08 08:56:11;;;;;;;14.27;8.07;;;;;;;3.76;37.81;95517.45;1753905;82;21161;-68
2021/03/08 08:58:52;;;;;;;5.23;3.77;;;;;;;3.89;37.26;95524.48;1754540;82;21501;-83
2021/03/08 09:01:34;;;;;;;10.10;6.97;;;;;;;3.89;34.69;95524.48;1745453;82;21090;-72
2021/03/08 09:04:08;;;;;;;6.87;4.10;;;;;;;3.76;34.21;95529.20;1753816;82;21117;-70
2021/03/08 09:06:53;;;;;;;9.93;4.87;;;;;;;3.83;34.72;95521.86;1753881;81;21129;-74
2021/03/08 09:09:34;;;;;;;10.73;6.77;;;;;;;3.86;33.99;95524.48;1754184;82;21120;-69
2021/03/08 09:12:07;;;;;;;9.77;6.07;;;;;;;3.94;35.41;95524.52;1750497;82;21145;-69
2021/03/08 09:14:52;;;;;;;11.70;7.20;;;;;;;3.95;34.03;95518.86;1754175;81;21128;-70
2021/03/08 09:17:31;;;;;;;26.87;13.17;;;;;;;3.99;35.48;95506.28;1754169;82;21556;-72
2021/03/08 09:20:07;;;;;;;42.20;19.90;;;;;;;4.29;36.31;95506.42;1751964;82;21145;-68
2021/03/08 09:22:59;;;;;;;27.43;15.47;;;;;;;4.60;35.04;95505.22;1753928;82;21193;-67
2021/03/08 09:25:56;;;;;;;18.87;10.60;;;;;;;4.91;37.12;95496.13;1741242;82;21576;-66
2021/03/08 09:28:32;;;;;;;64.47;36.10;;;;;;;5.11;34.06;95501.39;1751714;82;21125;-64
2021/03/08 09:30:59;;;;;;;19.13;12.27;;;;;;;5.32;34.49;95487.48;1754000;82;21174;-69
2021/03/08 09:33:28;;;;;;;14.73;10.67;;;;;;;5.47;34.92;95490.49;1754126;82;21141;-67
2021/03/08 09:35:59;;;;;;;8.93;6.73;;;;;;;5.54;32.64;95487.88;1752838;82;21157;-68
2021/03/08 09:38:28;;;;;;;12.47;8.23;;;;;;;5.69;32.40;95492.22;1725257;82;21137;-65
2021/03/08 09:41:09;;;;;;;8.40;5.93;;;;;;;5.64;33.13;95493.56;1747627;82;21106;-69
2021/03/08 09:43:46;;;;;;;13.20;8.50;;;;;;;5.68;31.41;95485.70;1754132;82;21132;-68
2021/03/08 09:46:16;;;;;;;11.00;7.00;;;;;;;5.79;33.07;95481.30;1753977;82;21121;-71
2021/03/08 09:49:04;;;;;;;10.40;6.00;;;;;;;5.84;31.67;95485.64;1745563;82;22426;-74
2021/03/08 09:51:52;;;;;;;9.13;5.97;;;;;;;5.68;30.14;95488.31;1715199;82;21164;-76
2021/03/08 09:54:47;;;;;;;12.53;7.60;;;;;;;5.67;31.02;95477.39;1753739;82;21132;-71
2021/03/08 09:57:40;;;;;;;7.60;5.33;;;;;;;5.69;30.53;95466.48;1742669;82;21173;-70
2021/03/08 10:00:29;;;;;;;11.13;7.23;;;;;;;5.68;30.89;95466.94;1753573;82;21134;-73
2021/03/08 10:03:04;;;;;;;9.47;6.83;;;;;;;5.67;30.69;95466.92;1753663;82;21129;-70
2021/03/08 10:05:49;;;;;;;10.73;7.30;;;;;;;5.85;29.76;95470.84;1753420;82;21121;-66
2021/03/08 10:08:20;;;;;;;34.57;20.43;;;;;;;5.97;31.02;95472.15;1753495;81;21125;-74
2021/03/08 10:10:53;;;;;;;13.13;9.83;;;;;;;6.14;29.90;95478.63;1753482;82;21126;-67
2021/03/08 10:13:22;;;;;;;;;;;;;;;6.09;31.17;95479.52;1755915;81;21126;-67
2021/03/08 10:15:54;;;;;;;9.07;6.07;;;;;;;6.35;31.14;95480.31;1753397;81;20236;-67
2021/03/08 10:18:29;;;;;;;10.53;5.53;;;;;;;6.46;31.02;95474.58;1753414;82;21264;-67
2021/03/08 10:21:00;;;;;;;4.90;3.27;;;;;;;6.62;30.54;95468.80;1753348;82;21536;-68
2021/03/08 10:23:32;;;;;;;8.90;6.87;;;;;;;6.62;28.64;95481.05;1753766;82;21129;-68
2021/03/08 10:26:13;;;;;;;7.40;4.83;;;;;;;6.60;29.88;95475.83;1753275;82;21137;-67
2021/03/08 10:28:50;;;;;;;6.43;4.17;;;;;;;6.68;27.89;95475.79;1753659;82;21133;-67
2021/03/08 10:31:27;;;;;;;7.80;5.30;;;;;;;6.65;28.43;95464.88;1753381;81;21121;-68
2021/03/08 10:33:59;;;;;;;11.40;7.60;;;;;;;6.66;28.68;95468.37;1753645;82;21140;-67
2021/03/08 10:36:30;;;;;;;7.27;5.47;;;;;;;6.89;27.69;95466.91;1752588;81;21287;-68
2021/03/08 10:39:00;;;;;;;9.43;6.70;;;;;;;6.70;28.43;95463.10;1740344;82;21276;-67
2021/03/08 10:41:30;;;;;;;11.10;7.63;;;;;;;6.77;28.08;95471.78;1740094;82;21256;-67
2021/03/08 10:43:59;;;;;;;10.30;7.17;;;;;;;6.82;28.24;95474.38;1740337;82;21279;-67
2021/03/08 10:46:32;;;;;;;8.50;6.10;;;;;;;7.06;29.43;95462.88;1740232;82;21292;-67
2021/03/08 10:49:04;;;;;;;7.30;5.47;;;;;;;7.23;28.71;95467.98;1740271;82;21265;-67
2021/03/08 10:51:34;;;;;;;12.33;6.17;;;;;;;7.32;28.81;95467.91;1740339;82;21256;-67
2021/03/08 10:54:12;;;;;;;10.43;6.37;;;;;;;7.45;27.25;95467.38;1740303;82;21160;-67
2021/03/08 10:56:43;;;;;;;11.37;7.50;;;;;;;7.70;28.01;95462.77;1740081;82;21296;-67
2021/03/08 10:59:31;;;;;;;13.20;8.40;;;;;;;8.11;26.79;95456.20;1740237;82;21260;-68
2021/03/08 11:02:06;;;;;;;13.43;7.87;;;;;;;8.46;26.68;95455.82;1740077;82;21264;-68
2021/03/08 11:04:34;;;;;;;10.73;7.80;;;;;;;8.67;25.97;95459.95;1740344;82;21304;-67
2021/03/08 11:07:04;;;;;;;7.90;6.10;;;;;;;8.53;25.66;95452.23;1740131;82;21153;-68
2021/03/08 11:09:36;;;;;;;10.93;8.00;;;;;;;8.76;26.33;95449.73;1740029;82;21304;-68
2021/03/08 11:12:17;;;;;;;7.27;4.90;;;;;;;9.23;24.95;95445.09;1740107;82;21287;-67
2021/03/08 11:14:48;;;;;;;15.63;8.60;;;;;;;9.88;25.37;95445.33;1740393;82;21133;-68
2021/03/08 11:17:17;;;;;;;10.60;7.97;;;;;;;10.15;25.21;95437.33;1740190;82;21304;-68
2021/03/08 11:19:45;;;;;;;10.57;8.10;;;;;;;10.45;24.51;95434.55;1739994;82;21154;-68
2021/03/08 11:22:14;;;;;;;12.27;9.03;;;;;;;10.51;24.47;95429.17;1740071;81;21277;-67
2021/03/08 11:24:51;;;;;;;8.67;6.67;;;;;;;10.79;24.60;95433.40;1740502;82;21157;-68
2021/03/08 11:27:25;;;;;;;9.33;6.40;;;;;;;10.20;22.90;95443.37;1740134;82;21289;-68
2021/03/08 11:30:10;;;;;;;10.03;7.23;;;;;;;10.19;23.16;95441.20;1740231;82;21560;-68
2021/03/08 11:32:40;;;;;;;7.90;6.50;;;;;;;10.34;22.52;95433.92;1740400;81;21264;-67
2021/03/08 11:35:22;;;;;;;10.53;8.70;;;;;;;10.74;23.83;95430.45;1739547;82;21690;-68
2021/03/08 11:38:06;;;;;;;8.48;7.00;;;;;;;11.11;22.52;95417.26;1740167;81;21280;-68
2021/03/08 11:40:37;;;;;;;8.47;7.27;;;;;;;11.21;22.11;95414.84;1740408;82;21107;-68
2021/03/08 11:43:05;;;;;;;8.30;7.40;;;;;;;11.52;21.48;95420.70;1719465;82;21145;-68
2021/03/08 11:45:35;;;;;;;9.83;7.43;;;;;;;11.43;22.63;95416.95;1740123;82;21284;-68
2021/03/08 11:48:04;;;;;;;11.43;8.07;;;;;;;11.74;21.46;95413.52;1740100;82;21267;-68
2021/03/08 11:50:34;;;;;;;8.73;7.00;;;;;;;11.91;21.64;95412.66;1740180;82;21148;-68
2021/03/08 11:53:04;;;;;;;8.37;7.13;;;;;;;12.60;23.12;95409.85;1740168;82;21731;-68
2021/03/08 11:55:32;;;;;;;8.30;7.43;;;;;;;13.02;19.80;95407.70;1740382;82;21261;-68
2021/03/08 11:58:02;;;;;;;10.93;6.93;;;;;;;12.86;20.33;95415.72;1739950;82;21114;-68
2021/03/08 12:00:30;;;;;;;8.50;7.60;;;;;;;12.92;20.68;95411.54;1740566;82;21138;-68
2021/03/08 12:02:57;;;;;;;8.93;7.73;;;;;;;12.70;20.49;95411.31;1740101;82;21169;-68
2021/03/08 12:05:26;;;;;;;10.87;8.60;;;;;;;12.97;20.18;95412.27;1740017;82;21284;-68
2021/03/08 12:07:56;;;;;;;7.30;4.93;;;;;;;13.48;19.93;95411.58;1739687;82;21711;-68
2021/03/08 12:10:24;;;;;;;12.23;9.45;;;;;;;13.24;18.92;95416.30;1740343;82;21146;-68